createdAt,value
2018-03-26T00:01:39.314Z,101618.34
2018-03-26T00:04:07.041Z,101622.80
2018-03-26T00:06:34.876Z,101619.48
2018-03-26T00:09:02.627Z,101619.06
2018-03-26T00:11:30.467Z,101615.74
2018-03-26T00:13:58.184Z,101625.28
2018-03-26T00:16:26.016Z,101614.90
2018-03-26T00:18:53.751Z,101618.93
2018-03-26T00:21:21.541Z,101616.00
2018-03-26T00:23:49.335Z,101614.77
2018-03-26T00:26:17.192Z,101612.00
2018-03-26T00:28:44.914Z,101612.69
2018-03-26T00:31:12.679Z,101615.74
2018-03-26T00:33:40.510Z,101611.16
2018-03-26T00:36:08.254Z,101614.19
2018-03-26T00:38:36.086Z,101617.13
2018-03-26T00:41:03.818Z,101620.31
2018-03-26T00:43:31.650Z,101616.42
2018-03-26T00:45:59.388Z,101618.52
2018-03-26T00:48:27.227Z,101618.22
2018-03-26T00:50:54.905Z,101626.96
2018-03-26T00:53:34.289Z,101618.93
2018-03-26T00:56:01.993Z,101619.91
2018-03-26T00:58:29.748Z,101628.06
2018-03-26T01:00:57.436Z,101626.41
2018-03-26T01:03:25.171Z,101619.20
2018-03-26T01:05:52.902Z,101628.77
2018-03-26T01:08:20.661Z,101629.31
2018-03-26T01:10:48.389Z,101634.19
2018-03-26T01:13:16.122Z,101631.55
2018-03-26T01:15:43.806Z,101633.06
2018-03-26T01:18:11.560Z,101626.67
2018-03-26T01:20:39.289Z,101631.41
2018-03-26T01:23:07.025Z,101631.80
2018-03-26T01:25:34.724Z,101628.47
2018-03-26T01:28:02.469Z,101636.24
2018-03-26T01:30:30.156Z,101632.75
2018-03-26T01:32:57.876Z,101633.17
2018-03-26T01:35:25.562Z,101643.47
2018-03-26T01:37:53.316Z,101637.63
2018-03-26T01:40:21.009Z,101635.69
2018-03-26T01:42:48.762Z,101636.53
2018-03-26T01:45:16.453Z,101635.14
2018-03-26T01:47:44.199Z,101641.79
2018-03-26T01:50:11.912Z,101641.50
2018-03-26T01:52:39.658Z,101639.98
2018-03-26T01:55:07.345Z,101638.30
2018-03-26T01:57:35.085Z,101637.20
2018-03-26T02:00:02.790Z,101635.15
2018-03-26T02:02:30.517Z,101641.25
2018-03-26T02:04:58.196Z,101644.56
2018-03-26T02:07:25.933Z,101645.12
2018-03-26T02:09:53.614Z,101642.09
2018-03-26T02:12:21.361Z,101646.08
2018-03-26T02:14:49.065Z,101647.34
2018-03-26T02:17:16.807Z,101644.15
2018-03-26T02:19:44.528Z,101639.58
2018-03-26T02:22:12.254Z,101642.92
2018-03-26T02:24:39.987Z,101639.19
2018-03-26T02:27:07.668Z,101645.53
2018-03-26T02:29:35.426Z,101646.50
2018-03-26T02:32:03.112Z,101644.86
2018-03-26T02:34:30.828Z,101648.47
2018-03-26T02:36:58.529Z,101648.18
2018-03-26T02:39:26.253Z,101648.44
2018-03-26T02:41:53.950Z,101652.59
2018-03-26T02:44:21.685Z,101662.17
2018-03-26T02:46:49.363Z,101659.14
2018-03-26T02:49:17.099Z,101667.72
2018-03-26T02:51:44.786Z,101675.22
2018-03-26T02:54:12.532Z,101669.81
2018-03-26T02:56:40.223Z,101675.36
2018-03-26T02:59:07.944Z,101678.25
2018-03-26T03:01:35.617Z,101683.12
2018-03-26T03:04:03.346Z,101682.41
2018-03-26T03:06:31.063Z,101691.27
2018-03-26T03:08:58.796Z,101696.15
2018-03-26T03:11:26.484Z,101693.08
2018-03-26T03:13:54.212Z,101689.89
2018-03-26T03:16:21.906Z,101699.89
2018-03-26T03:18:49.644Z,101701.53
2018-03-26T03:21:17.373Z,101714.85
2018-03-26T03:23:45.133Z,101726.66
2018-03-26T03:26:12.842Z,101729.02
2018-03-26T03:28:40.585Z,101730.41
2018-03-26T03:31:08.271Z,101732.88
2018-03-26T03:33:36.013Z,101729.56
2018-03-26T03:36:03.710Z,101729.98
2018-03-26T03:38:31.432Z,101732.63
2018-03-26T03:40:59.154Z,101739.26
2018-03-26T03:43:26.884Z,101739.13
2018-03-26T03:45:54.583Z,101740.35
2018-03-26T03:48:22.323Z,101747.44
2018-03-26T03:50:50.074Z,101747.69
2018-03-26T03:53:17.822Z,101749.08
2018-03-26T03:55:45.505Z,101757.94
2018-03-26T03:58:13.186Z,101755.15
2018-03-26T04:00:40.913Z,101753.73
2018-03-26T04:03:08.645Z,101755.02
2018-03-26T04:05:36.391Z,101764.69
2018-03-26T04:08:04.084Z,101764.52
2018-03-26T04:10:31.847Z,101772.17
2018-03-26T04:12:59.541Z,101782.97
2018-03-26T04:15:27.295Z,101783.42
2018-03-26T04:17:55.014Z,101778.57
2018-03-26T04:20:22.783Z,101784.80
2018-03-26T04:22:50.572Z,101784.69
2018-03-26T04:25:18.316Z,101786.61
2018-03-26T04:27:46.043Z,101791.19
2018-03-26T04:30:13.786Z,101789.64
2018-03-26T04:32:41.512Z,101796.00
2018-03-26T04:35:09.287Z,101794.03
2018-03-26T04:37:37.003Z,101794.32
2018-03-26T04:40:04.786Z,101799.43
2018-03-26T04:42:32.492Z,101801.61
2018-03-26T04:45:00.274Z,101806.59
2018-03-26T04:47:27.994Z,101812.27
2018-03-26T04:49:55.738Z,101816.01
2018-03-26T04:52:23.450Z,101822.36
2018-03-26T04:54:51.183Z,101818.60
2018-03-26T04:57:18.866Z,101817.53
2018-03-26T04:59:46.637Z,101820.49
2018-03-26T05:02:14.370Z,101819.91
2018-03-26T05:04:42.166Z,101817.60
2018-03-26T05:07:09.859Z,101821.33
2018-03-26T05:09:37.610Z,101822.48
2018-03-26T05:12:05.317Z,101833.75
2018-03-26T05:14:33.089Z,101843.31
2018-03-26T05:17:00.825Z,101838.90
2018-03-26T05:19:28.548Z,101850.79
2018-03-26T05:21:56.311Z,101851.93
2018-03-26T05:24:24.086Z,101846.23
2018-03-26T05:26:51.827Z,101853.02
2018-03-26T05:29:19.611Z,101861.00
2018-03-26T05:31:47.336Z,101855.72
2018-03-26T05:34:15.101Z,101854.44
2018-03-26T05:36:42.814Z,101858.69
2018-03-26T05:39:10.551Z,101868.02
2018-03-26T05:41:38.284Z,101865.31
2018-03-26T05:44:06.039Z,101868.31
2018-03-26T05:46:33.790Z,101879.52
2018-03-26T05:49:01.528Z,101888.98
2018-03-26T05:51:29.265Z,101883.16
2018-03-26T05:53:56.986Z,101886.78
2018-03-26T05:56:25.645Z,101885.57
2018-03-26T05:58:53.427Z,101893.47
2018-03-26T06:01:21.200Z,101901.92
2018-03-26T06:03:48.972Z,101911.53
2018-03-26T06:06:16.735Z,101912.98
2018-03-26T06:08:44.462Z,101912.30
2018-03-26T06:11:12.238Z,101913.31
2018-03-26T06:13:39.971Z,101922.84
2018-03-26T06:16:07.726Z,101920.50
2018-03-26T06:18:35.478Z,101928.97
2018-03-26T06:21:03.309Z,101924.67
2018-03-26T06:23:31.069Z,101921.41
2018-03-26T06:25:58.855Z,101926.57
2018-03-26T06:28:26.599Z,101930.98
2018-03-26T06:30:54.378Z,101935.34
2018-03-26T06:33:22.123Z,101942.38
2018-03-26T06:35:49.926Z,101940.58
2018-03-26T06:38:28.494Z,101943.19
2018-03-26T06:40:56.262Z,101950.70
2018-03-26T06:43:23.994Z,101954.45
2018-03-26T06:45:51.762Z,101961.95
2018-03-26T06:48:19.466Z,101962.53
2018-03-26T06:50:47.238Z,101963.09
2018-03-26T06:53:14.977Z,101963.79
2018-03-26T06:55:42.765Z,101957.02
2018-03-26T06:58:10.479Z,101966.14
2018-03-26T07:00:38.206Z,101967.56
2018-03-26T07:03:05.927Z,101973.17
2018-03-26T07:05:33.656Z,101978.70
2018-03-26T07:08:01.367Z,101978.47
2018-03-26T07:10:29.138Z,101982.97
2018-03-26T07:12:56.817Z,101985.67
2018-03-26T07:15:24.591Z,101988.42
2018-03-26T07:17:52.290Z,101976.72
2018-03-26T07:20:20.036Z,101987.13
2018-03-26T07:22:47.778Z,101991.05
2018-03-26T07:25:15.505Z,101993.19
2018-03-26T07:27:43.210Z,101989.58
2018-03-26T07:30:10.947Z,101984.91
2018-03-26T07:32:38.707Z,101983.70
2018-03-26T07:35:06.390Z,101982.73
2018-03-26T07:37:34.167Z,101974.86
2018-03-26T07:40:01.887Z,101977.52
2018-03-26T07:42:30.017Z,101976.78
2018-03-26T07:44:57.775Z,101982.23
2018-03-26T07:47:25.574Z,101974.62
2018-03-26T07:49:53.286Z,101974.50
2018-03-26T07:52:21.079Z,101976.28
2018-03-26T07:54:48.786Z,101976.34
2018-03-26T07:57:16.554Z,101973.72
2018-03-26T07:59:44.275Z,101979.43
2018-03-26T08:02:12.047Z,101973.92
2018-03-26T08:04:39.774Z,101977.06
2018-03-26T08:07:07.530Z,101984.51
2018-03-26T08:09:35.244Z,101986.59
2018-03-26T08:12:03.008Z,101994.45
2018-03-26T08:14:30.762Z,102004.16
2018-03-26T08:16:58.609Z,102001.52
2018-03-26T08:19:26.298Z,101995.52
2018-03-26T08:21:54.090Z,101999.36
2018-03-26T08:24:21.834Z,102005.37
2018-03-26T08:26:49.610Z,101998.92
2018-03-26T08:29:17.350Z,101995.81
2018-03-26T08:31:45.118Z,102006.33
2018-03-26T08:34:12.842Z,102003.42
2018-03-26T08:36:40.614Z,102007.89
2018-03-26T08:39:08.561Z,102008.11
2018-03-26T08:41:36.314Z,102010.61
2018-03-26T08:44:04.038Z,102004.31
2018-03-26T08:46:31.791Z,102006.44
2018-03-26T08:48:59.492Z,102011.47
2018-03-26T08:51:27.254Z,102014.62
2018-03-26T08:53:54.966Z,102015.94
2018-03-26T08:56:22.771Z,102006.31
2018-03-26T08:58:50.387Z,102015.84
2018-03-26T09:01:18.166Z,102017.73
2018-03-26T09:03:45.886Z,102020.48
2018-03-26T09:06:13.670Z,102026.23
2018-03-26T09:08:41.398Z,102027.63
2018-03-26T09:11:09.121Z,102030.09
2018-03-26T09:13:36.850Z,102026.99
2018-03-26T09:16:04.618Z,102019.14
2018-03-26T09:18:32.360Z,102027.85
2018-03-26T09:21:00.151Z,102035.16
2018-03-26T09:23:27.966Z,102028.90
2018-03-26T09:25:55.674Z,102037.63
2018-03-26T09:28:23.464Z,102042.60
2018-03-26T09:30:51.198Z,102047.53
2018-03-26T09:33:18.969Z,102041.78
2018-03-26T09:35:46.690Z,102043.87
2018-03-26T09:38:14.494Z,102039.28
2018-03-26T09:40:42.247Z,102047.72
2018-03-26T09:43:10.017Z,102052.12
2018-03-26T09:45:37.758Z,102041.88
2018-03-26T09:48:05.550Z,102050.84
2018-03-26T09:50:33.320Z,102050.59
2018-03-26T09:53:01.094Z,102040.41
2018-03-26T09:55:28.855Z,102048.52
2018-03-26T09:57:56.616Z,102047.44
2018-03-26T10:00:30.093Z,102049.49
2018-03-26T10:02:57.862Z,102051.12
2018-03-26T10:08:03.425Z,102054.70
2018-03-26T10:10:31.119Z,102052.57
2018-03-26T10:12:58.878Z,102058.59
2018-03-26T10:15:26.605Z,102065.25
2018-03-26T10:17:54.379Z,102073.28
2018-03-26T10:20:22.093Z,102072.06
2018-03-26T10:22:49.900Z,102070.04
2018-03-26T10:25:17.638Z,102074.30
2018-03-26T10:27:46.340Z,102073.83
2018-03-26T10:30:14.114Z,102077.56
2018-03-26T10:32:41.886Z,102073.38
2018-03-26T10:35:09.598Z,102080.79
2018-03-26T10:37:37.338Z,102081.18
2018-03-26T10:40:05.094Z,102068.72
2018-03-26T10:42:32.871Z,102074.64
2018-03-26T10:45:00.591Z,102085.56
2018-03-26T10:47:28.354Z,102080.06
2018-03-26T10:49:56.083Z,102086.44
2018-03-26T10:52:23.858Z,102080.48
2018-03-26T10:54:51.578Z,102083.66
2018-03-26T10:57:19.362Z,102085.23
2018-03-26T10:59:47.076Z,102085.32
2018-03-26T11:02:14.834Z,102093.34
2018-03-26T11:04:42.538Z,102079.99
2018-03-26T11:07:10.255Z,102086.35
2018-03-26T11:09:38.043Z,102085.30
2018-03-26T11:12:05.881Z,102095.59
2018-03-26T11:14:33.666Z,102098.37
2018-03-26T11:17:01.375Z,102102.81
2018-03-26T11:19:29.138Z,102101.43
2018-03-26T11:21:56.923Z,102112.02
2018-03-26T11:24:24.662Z,102104.59
2018-03-26T11:26:52.383Z,102106.75
2018-03-26T11:29:20.189Z,102114.27
2018-03-26T11:31:47.929Z,102108.70
2018-03-26T11:34:15.673Z,102110.31
2018-03-26T11:36:43.419Z,102108.39
2018-03-26T11:39:11.183Z,102106.92
2018-03-26T11:41:38.892Z,102102.40
2018-03-26T11:44:06.679Z,102106.59
2018-03-26T11:46:34.403Z,102101.98
2018-03-26T11:49:02.125Z,102110.50
2018-03-26T11:51:29.842Z,102114.19
2018-03-26T11:53:57.616Z,102102.09
2018-03-26T11:56:25.343Z,102107.58
2018-03-26T11:58:53.097Z,102114.66
2018-03-26T12:01:20.778Z,102109.25
2018-03-26T12:03:48.548Z,102112.45
2018-03-26T12:06:16.258Z,102112.33
2018-03-26T12:08:44.028Z,102114.79
2018-03-26T12:11:11.742Z,102108.73
2018-03-26T12:13:39.501Z,102113.86
2018-03-26T12:16:07.243Z,102121.20
2018-03-26T12:18:34.994Z,102119.79
2018-03-26T12:21:02.795Z,102110.70
2018-03-26T12:23:42.255Z,102111.73
2018-03-26T12:26:09.986Z,102122.66
2018-03-26T12:28:49.524Z,102124.98
2018-03-26T12:31:17.260Z,102122.63
2018-03-26T12:33:56.863Z,102125.36
2018-03-26T12:36:24.607Z,102120.71
2018-03-26T12:38:52.362Z,102118.72
2018-03-26T12:41:20.070Z,102128.23
2018-03-26T12:43:47.974Z,102132.00
2018-03-26T12:46:27.419Z,102138.03
2018-03-26T12:48:55.219Z,102146.91
2018-03-26T12:51:34.562Z,102141.11
2018-03-26T12:54:02.347Z,102143.88
2018-03-26T12:56:30.062Z,102136.95
2018-03-26T12:58:57.790Z,102140.09
2018-03-26T13:01:37.425Z,102144.53
2018-03-26T13:04:05.218Z,102141.95
2018-03-26T13:06:32.951Z,102141.95
2018-03-26T13:09:00.688Z,102148.09
2018-03-26T13:11:28.398Z,102145.78
2018-03-26T13:13:56.152Z,102145.36
2018-03-26T13:16:23.888Z,102149.00
2018-03-26T13:18:51.667Z,102142.98
2018-03-26T13:21:19.428Z,102140.53
2018-03-26T13:23:47.189Z,102144.89
2018-03-26T13:26:14.898Z,102145.09
2018-03-26T13:28:42.644Z,102152.63
2018-03-26T13:31:10.367Z,102153.38
2018-03-26T13:33:38.106Z,102163.03
2018-03-26T13:36:05.931Z,102164.28
2018-03-26T13:38:33.675Z,102171.09
2018-03-26T13:41:01.446Z,102167.13
2018-03-26T13:43:29.194Z,102163.72
2018-03-26T13:45:56.933Z,102167.17
2018-03-26T13:48:24.635Z,102168.83
2018-03-26T13:50:52.503Z,102165.31
2018-03-26T13:53:20.234Z,102161.20
2018-03-26T13:55:47.966Z,102173.27
2018-03-26T13:58:15.683Z,102172.99
2018-03-26T14:00:43.475Z,102176.69
2018-03-26T14:03:11.205Z,102175.80
2018-03-26T14:05:39.006Z,102175.71
2018-03-26T14:08:06.765Z,102188.38
2018-03-26T14:10:46.301Z,102186.95
2018-03-26T14:16:15.323Z,102185.59
2018-03-26T14:18:43.082Z,102183.97
2018-03-26T14:21:10.863Z,102188.33
2018-03-26T14:23:38.884Z,102191.76
2018-03-26T14:26:06.638Z,102194.31
2018-03-26T14:28:34.386Z,102191.16
2018-03-26T14:31:02.128Z,102198.64
2018-03-26T14:33:29.805Z,102191.69
2018-03-26T14:35:57.577Z,102193.97
2018-03-26T14:38:25.292Z,102191.06
2018-03-26T14:40:53.057Z,102194.77
2018-03-26T14:43:20.805Z,102192.16
2018-03-26T14:45:48.579Z,102182.91
2018-03-26T14:48:16.329Z,102189.53
2018-03-26T14:50:44.070Z,102195.48
2018-03-26T14:53:11.805Z,102203.22
2018-03-26T14:55:39.571Z,102199.48
2018-03-26T14:58:07.304Z,102195.75
2018-03-26T15:00:35.043Z,102195.23
2018-03-26T15:03:02.758Z,102190.66
2018-03-26T15:05:30.534Z,102190.09
2018-03-26T15:07:58.255Z,102188.50
2018-03-26T15:10:26.014Z,102188.89
2018-03-26T15:12:53.735Z,102182.56
2018-03-26T15:15:21.478Z,102183.69
2018-03-26T15:17:49.205Z,102187.75
2018-03-26T15:20:17.003Z,102183.95
2018-03-26T15:22:44.754Z,102191.41
2018-03-26T15:25:13.628Z,102186.63
2018-03-26T15:27:41.340Z,102184.94
2018-03-26T15:30:09.119Z,102191.79
2018-03-26T15:32:36.844Z,102203.59
2018-03-26T15:35:04.635Z,102199.59
2018-03-26T15:37:32.321Z,102194.63
2018-03-26T15:40:00.119Z,102193.70
2018-03-26T15:42:27.866Z,102199.20
2018-03-26T15:44:55.674Z,102201.97
2018-03-26T15:47:23.401Z,102204.91
2018-03-26T15:49:51.127Z,102203.52
2018-03-26T15:52:18.891Z,102199.34
2018-03-26T15:54:46.611Z,102198.88
2018-03-26T15:57:14.395Z,102201.27
2018-03-26T15:59:42.109Z,102194.54
2018-03-26T16:02:09.354Z,102200.58
2018-03-26T16:04:37.096Z,102202.69
2018-03-26T16:07:04.841Z,102198.97
2018-03-26T16:09:32.542Z,102197.64
2018-03-26T16:12:00.279Z,102196.28
2018-03-26T16:14:28.018Z,102198.53
2018-03-26T16:16:55.784Z,102198.72
2018-03-26T16:19:23.480Z,102197.39
2018-03-26T16:21:51.287Z,102196.30
2018-03-26T16:24:18.978Z,102196.50
2018-03-26T16:26:46.757Z,102203.30
2018-03-26T16:29:14.479Z,102198.23
2018-03-26T16:31:42.179Z,102199.59
2018-03-26T16:34:09.912Z,102187.84
2018-03-26T16:36:37.615Z,102190.95
2018-03-26T16:39:05.287Z,102202.70
2018-03-26T16:41:44.834Z,102197.61
2018-03-26T16:44:12.490Z,102199.93
2018-03-26T16:46:40.239Z,102196.75
2018-03-26T16:49:07.886Z,102191.50
2018-03-26T16:51:35.584Z,102190.50
2018-03-26T16:54:03.253Z,102192.31
2018-03-26T16:56:30.932Z,102193.16
2018-03-26T16:58:58.592Z,102199.97
2018-03-26T17:01:26.279Z,102192.15
2018-03-26T17:03:53.951Z,102189.19
2018-03-26T17:06:21.668Z,102194.75
2018-03-26T17:08:49.355Z,102191.07
2018-03-26T17:11:17.553Z,102186.23
2018-03-26T17:13:45.954Z,102188.63
2018-03-26T17:16:14.093Z,102195.37
2018-03-26T17:18:41.822Z,102190.72
2018-03-26T17:21:09.917Z,102186.41
2018-03-26T17:23:37.737Z,102186.83
2018-03-26T17:26:05.593Z,102185.08
2018-03-26T17:28:33.464Z,102184.33
2018-03-26T17:31:01.357Z,102188.83
2018-03-26T17:33:29.159Z,102184.01
2018-03-26T17:35:57.033Z,102193.05
2018-03-26T17:38:24.987Z,102193.91
2018-03-26T17:40:52.641Z,102195.50
2018-03-26T17:43:20.372Z,102199.66
2018-03-26T17:45:48.083Z,102202.02
2018-03-26T17:48:15.782Z,102199.69
2018-03-26T17:50:43.463Z,102203.08
2018-03-26T17:53:11.332Z,102201.28
2018-03-26T17:55:39.055Z,102206.34
2018-03-26T17:58:06.735Z,102206.92
2018-03-26T18:00:34.395Z,102206.70
2018-03-26T18:03:02.082Z,102209.46
2018-03-26T18:05:29.728Z,102206.23
2018-03-26T18:07:57.466Z,102212.72
2018-03-26T18:10:25.157Z,102211.30
2018-03-26T18:12:52.864Z,102207.16
2018-03-26T18:15:20.511Z,102214.61
2018-03-26T18:17:48.184Z,102212.03
2018-03-26T18:20:15.816Z,102208.38
2018-03-26T18:22:43.540Z,102210.10
2018-03-26T18:25:11.221Z,102207.80
2018-03-26T18:27:38.977Z,102211.73
2018-03-26T18:30:06.654Z,102207.08
2018-03-26T18:32:34.408Z,102205.30
2018-03-26T18:35:02.155Z,102207.34
2018-03-26T18:37:29.880Z,102205.13
2018-03-26T18:39:57.539Z,102208.74
2018-03-26T18:42:25.256Z,102210.78
2018-03-26T18:44:52.894Z,102205.88
2018-03-26T18:47:20.578Z,102201.35
2018-03-26T18:49:48.228Z,102208.53
2018-03-26T18:52:15.919Z,102208.00
2018-03-26T18:54:43.557Z,102208.30
2018-03-26T18:57:11.243Z,102207.34
2018-03-26T18:59:38.902Z,102211.41
2018-03-26T19:02:06.577Z,102209.64
2018-03-26T19:04:34.258Z,102206.00
2018-03-26T19:07:01.955Z,102207.61
2018-03-26T19:09:29.639Z,102214.56
2018-03-26T19:11:57.368Z,102212.84
2018-03-26T19:14:25.039Z,102206.93
2018-03-26T19:16:52.721Z,102206.03
2018-03-26T19:19:20.393Z,102209.48
2018-03-26T19:21:48.043Z,102205.42
2018-03-26T19:24:15.752Z,102198.12
2018-03-26T19:26:43.441Z,102202.91
2018-03-26T19:29:11.135Z,102203.13
2018-03-26T19:31:38.783Z,102197.28
2018-03-26T19:34:06.510Z,102200.29
2018-03-26T19:36:34.155Z,102204.56
2018-03-26T19:39:01.873Z,102204.36
2018-03-26T19:41:29.548Z,102208.26
2018-03-26T19:43:57.296Z,102206.25
2018-03-26T19:46:24.982Z,102202.55
2018-03-26T19:48:52.673Z,102202.55
2018-03-26T19:51:20.298Z,102212.43
2018-03-26T19:53:48.055Z,102214.91
2018-03-26T19:56:15.777Z,102210.19
2018-03-26T19:58:43.486Z,102205.44
2018-03-26T20:01:11.174Z,102203.63
2018-03-26T20:03:38.930Z,102205.60
2018-03-26T20:06:06.624Z,102202.98
2018-03-26T20:08:34.915Z,102205.12
2018-03-26T20:11:02.550Z,102205.76
2018-03-26T20:13:30.262Z,102200.14
2018-03-26T20:15:57.951Z,102205.08
2018-03-26T20:18:25.672Z,102201.67
2018-03-26T20:20:53.354Z,102202.55
2018-03-26T20:23:21.082Z,102200.11
2018-03-26T20:25:48.741Z,102193.58
2018-03-26T20:28:16.502Z,102196.28
2018-03-26T20:30:44.156Z,102194.09
2018-03-26T20:33:11.871Z,102193.98
2018-03-26T20:35:39.566Z,102191.23
2018-03-26T20:38:07.286Z,102192.72
2018-03-26T20:40:35.055Z,102190.05
2018-03-26T20:43:02.785Z,102196.27
2018-03-26T20:45:30.511Z,102192.44
2018-03-26T20:47:58.245Z,102190.76
2018-03-26T20:50:25.984Z,102187.16
2018-03-26T20:52:54.856Z,102193.14
2018-03-26T20:55:31.521Z,102186.13
2018-03-26T20:57:59.141Z,102192.20
2018-03-26T21:00:26.816Z,102188.54
2018-03-26T21:02:54.437Z,102184.86
2018-03-26T21:05:22.092Z,102188.75
2018-03-26T21:07:49.736Z,102194.65
2018-03-26T21:10:17.371Z,102190.81
2018-03-26T21:12:45.015Z,102192.50
2018-03-26T21:15:12.647Z,102188.02
2018-03-26T21:17:40.308Z,102196.67
2018-03-26T21:20:07.907Z,102188.28
2018-03-26T21:22:35.622Z,102192.70
2018-03-26T21:25:03.272Z,102192.37
2018-03-26T21:27:30.924Z,102191.42
2018-03-26T21:29:58.593Z,102194.47
2018-03-26T21:32:26.240Z,102192.73
2018-03-26T21:34:53.895Z,102193.69
2018-03-26T21:37:21.608Z,102192.38
2018-03-26T21:39:49.241Z,102187.55
2018-03-26T21:42:16.849Z,102191.32
2018-03-26T21:44:44.543Z,102195.05
2018-03-26T21:47:12.182Z,102200.42
2018-03-26T21:49:39.818Z,102192.65
2018-03-26T21:52:07.448Z,102187.75
2018-03-26T21:54:35.102Z,102188.91
2018-03-26T21:57:02.726Z,102190.70
2018-03-26T21:59:30.435Z,102182.80
2018-03-26T22:01:58.060Z,102186.66
2018-03-26T22:04:25.762Z,102178.23
2018-03-26T22:06:53.435Z,102178.58
2018-03-26T22:09:21.110Z,102181.91
2018-03-26T22:11:48.747Z,102176.25
2018-03-26T22:14:16.385Z,102172.13
2018-03-26T22:16:44.040Z,102173.25
2018-03-26T22:19:11.678Z,102179.83
2018-03-26T22:21:39.286Z,102180.55
2018-03-26T22:24:06.961Z,102180.70
2018-03-26T22:26:34.594Z,102178.45
2018-03-26T22:29:02.294Z,102182.87
2018-03-26T22:31:29.969Z,102176.11
2018-03-26T22:33:57.586Z,102179.51
2018-03-26T22:36:25.231Z,102183.39
2018-03-26T22:38:52.850Z,102178.84
2018-03-26T22:41:20.521Z,102174.11
2018-03-26T22:43:48.145Z,102178.38
2018-03-26T22:46:15.779Z,102183.59
2018-03-26T22:48:43.460Z,102194.50
2018-03-26T22:51:11.141Z,102189.61
2018-03-26T22:53:38.795Z,102183.99
2018-03-26T22:56:06.474Z,102194.11
2018-03-26T22:58:34.126Z,102186.70
2018-03-26T23:01:01.714Z,102188.46
2018-03-26T23:03:29.319Z,102187.38
2018-03-26T23:05:57.038Z,102189.86
2018-03-26T23:08:24.678Z,102188.31
2018-03-26T23:10:52.293Z,102193.38
2018-03-26T23:13:42.226Z,102195.24
2018-03-26T23:16:09.865Z,102193.02
2018-03-26T23:18:37.462Z,102193.25
2018-03-26T23:21:05.093Z,102192.08
2018-03-26T23:23:32.693Z,102186.92
2018-03-26T23:26:00.325Z,102185.14
2018-03-26T23:28:27.930Z,102186.69
2018-03-26T23:30:55.639Z,102187.81
2018-03-26T23:33:23.261Z,102189.39
2018-03-26T23:35:50.896Z,102190.82
2018-03-26T23:38:18.500Z,102184.95
2018-03-26T23:40:46.194Z,102187.02
2018-03-26T23:43:13.794Z,102187.33
2018-03-26T23:45:41.393Z,102184.29
2018-03-26T23:48:09.033Z,102185.59
2018-03-26T23:50:36.643Z,102191.59
2018-03-26T23:53:04.335Z,102191.81
2018-03-26T23:55:31.940Z,102185.81
2018-03-26T23:57:59.569Z,102186.58
